createdAt,value
2022-08-03T00:00:20.349Z,18.06
2022-08-03T00:02:53.167Z,17.82
2022-08-03T00:06:04.349Z,17.54
2022-08-03T00:08:40.341Z,17.97
2022-08-03T00:11:13.252Z,17.75
2022-08-03T00:14:09.514Z,17.84
2022-08-03T00:23:55.369Z,17.51
2022-08-03T00:27:25.565Z,17.37
2022-08-03T00:30:42.925Z,17.29
2022-08-03T00:33:20.670Z,17.44
2022-08-03T00:39:50.203Z,17.11
2022-08-03T00:42:22.897Z,17.22
2022-08-03T00:45:01.345Z,17.52
2022-08-03T00:47:34.077Z,17.21
2022-08-03T00:50:07.210Z,16.91
2022-08-03T00:52:40.614Z,17.30
2022-08-03T00:55:13.792Z,17.17
2022-08-03T00:57:47.630Z,17.54
2022-08-03T01:00:27.792Z,17.23
2022-08-03T01:03:00.630Z,16.93
2022-08-03T01:06:18.751Z,17.26
2022-08-03T01:09:12.325Z,17.20
2022-08-03T01:11:59.844Z,16.96
2022-08-03T01:14:40.808Z,17.45
2022-08-03T01:17:40.131Z,17.38
2022-08-03T01:20:20.765Z,17.21
2022-08-03T01:23:46.451Z,17.48
2022-08-03T01:26:48.648Z,17.47
2022-08-03T01:30:12.392Z,17.51
2022-08-03T01:33:10.510Z,17.55
2022-08-03T01:35:53.629Z,17.60
2022-08-03T01:38:33.457Z,17.60
2022-08-03T01:41:13.885Z,17.52
2022-08-03T01:44:27.652Z,17.21
2022-08-03T01:46:49.144Z,17.20
2022-08-03T01:49:22.789Z,17.11
2022-08-03T01:52:04.086Z,17.57
2022-08-03T01:54:44.051Z,17.29
2022-08-03T01:57:19.901Z,17.50
2022-08-03T01:59:55.818Z,16.99
2022-08-03T02:02:34.482Z,17.37
2022-08-03T02:05:11.427Z,17.42
2022-08-03T02:07:47.880Z,17.26
2022-08-03T02:10:35.579Z,17.27
2022-08-03T02:13:10.623Z,17.18
2022-08-03T02:15:44.937Z,16.92
2022-08-03T02:18:21.193Z,16.98
2022-08-03T02:20:55.880Z,16.79
2022-08-03T02:23:28.842Z,16.75
2022-08-03T02:26:06.708Z,16.78
2022-08-03T02:28:46.140Z,17.25
2022-08-03T02:31:27.229Z,16.95
2022-08-03T02:34:06.760Z,16.92
2022-08-03T02:36:44.937Z,17.01
2022-08-03T02:39:22.011Z,16.99
2022-08-03T02:42:02.365Z,16.75
2022-08-03T02:44:38.459Z,16.88
2022-08-03T02:47:13.546Z,16.64
2022-08-03T02:49:52.315Z,16.77
2022-08-03T02:52:30.573Z,16.82
2022-08-03T02:55:06.756Z,17.14
2022-08-03T02:57:40.948Z,16.60
2022-08-03T03:00:27.301Z,17.12
2022-08-03T03:03:06.437Z,16.91
2022-08-03T03:05:51.619Z,16.84
2022-08-03T03:08:29.254Z,17.07
2022-08-03T03:11:02.290Z,16.88
2022-08-03T03:13:37.947Z,16.68
2022-08-03T03:16:15.529Z,17.08
2022-08-03T03:18:49.937Z,16.80
2022-08-03T03:21:25.088Z,16.60
2022-08-03T03:23:59.773Z,16.51
2022-08-03T03:26:35.351Z,16.57
2022-08-03T03:29:10.002Z,16.81
2022-08-03T03:31:42.721Z,16.40
2022-08-03T03:34:15.742Z,16.56
2022-08-03T03:36:49.289Z,16.33
2022-08-03T03:39:22.044Z,16.80
2022-08-03T03:41:55.224Z,16.88
2022-08-03T03:44:31.905Z,16.66
2022-08-03T03:47:04.936Z,16.35
2022-08-03T03:49:38.019Z,16.59
2022-08-03T03:52:11.377Z,16.28
2022-08-03T03:54:45.882Z,16.47
2022-08-03T03:57:18.640Z,16.75
2022-08-03T03:59:51.380Z,16.30
2022-08-03T04:02:24.467Z,16.11
2022-08-03T04:05:15.528Z,16.34
2022-08-03T04:08:24.904Z,16.32
2022-08-03T04:11:30.192Z,16.74
2022-08-03T04:14:15.015Z,16.71
2022-08-03T04:16:54.898Z,16.51
2022-08-03T04:19:47.256Z,16.69
2022-08-03T04:22:27.727Z,16.60
2022-08-03T04:25:05.324Z,16.73
2022-08-03T04:27:42.042Z,16.60
2022-08-03T04:30:15.498Z,16.58
2022-08-03T04:32:51.903Z,16.68
2022-08-03T04:35:59.678Z,16.47
2022-08-03T04:38:27.111Z,16.69
2022-08-03T04:41:01.641Z,16.65
2022-08-03T04:43:36.141Z,16.87
2022-08-03T04:46:11.257Z,16.62
2022-08-03T04:48:45.135Z,16.88
2022-08-03T04:51:18.360Z,17.02
2022-08-03T04:53:51.001Z,17.09
2022-08-03T04:56:23.754Z,16.83
2022-08-03T04:58:56.530Z,16.65
2022-08-03T05:01:29.230Z,16.81
2022-08-03T05:04:02.166Z,16.89
2022-08-03T05:06:35.111Z,17.03
2022-08-03T05:09:08.491Z,17.29
2022-08-03T05:11:41.140Z,17.11
2022-08-03T05:14:28.310Z,17.15
2022-08-03T05:17:01.148Z,17.51
2022-08-03T05:19:34.075Z,17.48
2022-08-03T05:22:06.734Z,17.73
2022-08-03T05:24:39.370Z,18.02
2022-08-03T05:27:23.582Z,18.17
2022-08-03T05:29:56.306Z,17.96
2022-08-03T05:32:49.021Z,18.39
2022-08-03T05:36:00.984Z,18.26
2022-08-03T05:38:14.703Z,18.90
2022-08-03T05:41:22.168Z,19.35
2022-08-03T05:43:58.061Z,19.16
2022-08-03T05:46:30.825Z,19.37
2022-08-03T05:49:04.673Z,19.66
2022-08-03T05:51:37.370Z,19.73
2022-08-03T05:54:12.201Z,20.15
2022-08-03T05:56:44.877Z,20.21
2022-08-03T05:59:38.109Z,20.01
2022-08-03T06:02:11.348Z,20.50
2022-08-03T06:04:44.149Z,20.61
2022-08-03T06:07:16.806Z,20.84
2022-08-03T06:10:33.952Z,21.17
2022-08-03T06:12:42.229Z,20.95
2022-08-03T06:15:15.741Z,21.49
2022-08-03T06:17:50.012Z,21.74
2022-08-03T06:20:28.631Z,21.67
2022-08-03T06:23:06.075Z,21.90
2022-08-03T06:25:40.162Z,22.07
2022-08-03T06:28:52.850Z,22.23
2022-08-03T06:31:10.941Z,22.20
2022-08-03T06:34:31.136Z,22.16
2022-08-03T06:36:38.681Z,22.35
2022-08-03T06:39:13.038Z,22.57
2022-08-03T06:41:45.727Z,22.62
2022-08-03T06:44:18.370Z,22.77
2022-08-03T06:46:51.790Z,22.62
2022-08-03T06:49:24.948Z,23.05
2022-08-03T06:52:03.050Z,23.08
2022-08-03T06:54:38.976Z,23.39
2022-08-03T06:57:11.751Z,22.84
2022-08-03T07:00:09.403Z,23.07
2022-08-03T07:02:44.121Z,23.33
2022-08-03T07:05:18.003Z,23.38
2022-08-03T07:07:50.586Z,23.53
2022-08-03T07:10:29.743Z,23.74
2022-08-03T07:13:02.362Z,24.06
2022-08-03T07:15:55.329Z,24.06
2022-08-03T07:18:29.809Z,24.44
2022-08-03T07:21:02.988Z,24.47
2022-08-03T07:23:35.645Z,24.78
2022-08-03T07:26:08.347Z,24.49
2022-08-03T07:28:41.030Z,25.23
2022-08-03T07:31:13.752Z,25.31
2022-08-03T07:33:46.407Z,25.61
2022-08-03T07:36:19.151Z,25.63
2022-08-03T07:38:59.375Z,25.48
2022-08-03T07:41:31.992Z,25.61
2022-08-03T07:44:04.890Z,25.58
2022-08-03T07:46:37.569Z,25.46
2022-08-03T07:49:10.615Z,25.93
2022-08-03T07:51:44.259Z,26.01
2022-08-03T07:54:26.590Z,26.75
2022-08-03T07:56:59.412Z,26.30
2022-08-03T07:59:56.693Z,26.48
2022-08-03T08:02:24.833Z,26.69
2022-08-03T08:05:04.961Z,26.83
2022-08-03T08:07:39.563Z,26.88
2022-08-03T08:10:12.263Z,27.43
2022-08-03T08:12:46.267Z,27.05
2022-08-03T08:15:18.966Z,26.86
2022-08-03T08:18:03.750Z,27.32
2022-08-03T08:20:38.968Z,27.58
2022-08-03T08:23:42.227Z,26.66
2022-08-03T08:26:06.312Z,27.65
2022-08-03T08:28:49.195Z,28.13
2022-08-03T08:31:21.743Z,27.91
2022-08-03T08:34:03.988Z,28.08
2022-08-03T08:36:37.270Z,28.61
2022-08-03T08:39:10.394Z,28.65
2022-08-03T08:41:49.617Z,28.74
2022-08-03T08:44:25.817Z,27.83
2022-08-03T08:47:02.961Z,28.13
2022-08-03T08:49:40.126Z,28.03
2022-08-03T08:52:25.238Z,28.67
2022-08-03T08:55:08.634Z,28.93
2022-08-03T08:57:51.125Z,28.50
2022-08-03T09:00:23.677Z,28.92
2022-08-03T09:02:56.363Z,29.21
2022-08-03T09:05:54.996Z,29.45
2022-08-03T09:08:26.126Z,29.78
2022-08-03T09:10:59.793Z,29.37
2022-08-03T09:13:34.525Z,30.10
2022-08-03T09:16:22.755Z,30.44
2022-08-03T09:18:55.683Z,29.56
2022-08-03T09:21:32.173Z,29.97
2022-08-03T09:24:16.492Z,30.71
2022-08-03T09:26:58.690Z,31.33
2022-08-03T09:29:33.915Z,31.47
2022-08-03T09:32:06.621Z,31.64
2022-08-03T09:34:39.566Z,31.64
2022-08-03T09:38:11.798Z,32.32
2022-08-03T09:40:36.918Z,31.86
2022-08-03T09:43:11.200Z,31.26
2022-08-03T09:45:53.058Z,31.04
2022-08-03T09:48:29.700Z,30.55
2022-08-03T09:51:13.627Z,31.43
2022-08-03T09:54:17.568Z,32.35
2022-08-03T09:56:53.651Z,32.40
2022-08-03T09:59:28.562Z,33.92
2022-08-03T10:02:02.932Z,33.63
2022-08-03T10:04:54.575Z,32.86
2022-08-03T10:07:29.418Z,32.82
2022-08-03T10:10:30.318Z,32.08
2022-08-03T10:13:15.736Z,32.50
2022-08-03T10:16:22.646Z,32.43
2022-08-03T10:19:10.651Z,33.30
2022-08-03T10:21:56.423Z,33.93
2022-08-03T10:24:36.591Z,33.28
2022-08-03T10:27:12.975Z,32.96
2022-08-03T10:29:56.308Z,33.76
2022-08-03T10:32:36.444Z,35.16
2022-08-03T10:35:19.730Z,33.70
2022-08-03T10:38:08.121Z,34.23
2022-08-03T10:40:49.915Z,34.37
2022-08-03T10:43:33.908Z,34.00
2022-08-03T10:46:09.529Z,33.32
2022-08-03T10:48:43.725Z,33.27
2022-08-03T10:51:17.346Z,34.62
2022-08-03T10:53:54.681Z,34.62
2022-08-03T10:56:53.542Z,33.80
2022-08-03T10:59:45.640Z,34.64
2022-08-03T11:02:18.288Z,34.92
2022-08-03T11:05:30.793Z,35.71
2022-08-03T11:08:29.962Z,34.83
2022-08-03T11:11:40.304Z,34.08
2022-08-03T11:14:21.891Z,33.37
2022-08-03T11:17:14.099Z,33.39
2022-08-03T11:19:56.868Z,33.76
2022-08-03T11:23:03.739Z,33.93
2022-08-03T11:26:36.970Z,34.82
2022-08-03T11:29:36.395Z,33.83
2022-08-03T11:32:09.069Z,33.47
2022-08-03T11:35:13.672Z,34.56
2022-08-03T11:38:04.381Z,34.56
2022-08-03T11:40:50.492Z,34.39
2022-08-03T11:43:30.717Z,33.96
2022-08-03T11:46:29.841Z,33.86
2022-08-03T11:49:10.368Z,33.98
2022-08-03T11:51:44.723Z,33.61
2022-08-03T11:54:19.836Z,32.96
2022-08-03T11:56:52.527Z,32.83
2022-08-03T11:59:37.349Z,33.25
2022-08-03T12:02:12.294Z,34.36
2022-08-03T12:04:53.480Z,35.31
2022-08-03T12:08:03.778Z,34.74
2022-08-03T12:10:35.908Z,34.16
2022-08-03T12:14:44.982Z,34.80
2022-08-03T12:16:04.673Z,36.51
2022-08-03T12:18:51.467Z,37.51
2022-08-03T12:21:25.011Z,36.67
2022-08-03T12:24:00.827Z,35.60
2022-08-03T12:26:59.221Z,36.53
2022-08-03T12:29:32.284Z,35.90
2022-08-03T12:32:05.346Z,36.46
2022-08-03T12:34:49.260Z,37.24
2022-08-03T12:37:28.665Z,37.38
2022-08-03T12:40:10.096Z,35.42
2022-08-03T12:42:43.235Z,35.10
2022-08-03T12:45:18.809Z,36.96
2022-08-03T12:47:56.298Z,36.82
2022-08-03T12:50:34.010Z,35.62
2022-08-03T12:53:11.253Z,35.73
2022-08-03T12:56:04.495Z,33.49
2022-08-03T12:58:38.806Z,31.79
2022-08-03T13:01:13.904Z,31.45
2022-08-03T13:03:59.285Z,32.99
2022-08-03T13:06:34.532Z,34.45
2022-08-03T13:09:08.338Z,34.06
2022-08-03T13:11:57.631Z,33.28
2022-08-03T13:14:34.179Z,34.88
2022-08-03T13:17:07.543Z,36.40
2022-08-03T13:19:40.895Z,37.46
2022-08-03T13:22:22.346Z,36.04
2022-08-03T13:24:57.607Z,35.05
2022-08-03T13:28:03.508Z,35.38
2022-08-03T13:30:30.292Z,35.41
2022-08-03T13:33:03.594Z,34.02
2022-08-03T13:35:37.995Z,34.17
2022-08-03T13:38:15.320Z,33.52
2022-08-03T13:40:53.272Z,34.54
2022-08-03T13:43:26.313Z,34.86
2022-08-03T13:45:58.942Z,36.41
2022-08-03T13:48:34.733Z,35.63
2022-08-03T13:51:22.697Z,35.13
2022-08-03T13:54:07.283Z,32.66
2022-08-03T13:56:42.471Z,32.34
2022-08-03T13:59:17.502Z,32.01
2022-08-03T14:01:55.652Z,31.67
2022-08-03T14:04:28.870Z,31.54
2022-08-03T14:07:03.645Z,31.51
2022-08-03T14:09:38.838Z,32.93
2022-08-03T14:12:11.478Z,32.59
2022-08-03T14:14:44.102Z,32.72
2022-08-03T14:17:16.872Z,32.28
2022-08-03T14:19:53.380Z,32.70
2022-08-03T14:22:26.619Z,34.34
2022-08-03T14:24:59.294Z,34.61
2022-08-03T14:27:32.876Z,34.46
2022-08-03T14:30:06.286Z,33.68
2022-08-03T14:32:39.726Z,34.20
2022-08-03T14:35:12.591Z,35.05
2022-08-03T14:37:45.179Z,36.67
2022-08-03T14:40:21.509Z,37.08
2022-08-03T14:42:54.066Z,35.43
2022-08-03T14:45:26.646Z,34.39
2022-08-03T14:50:32.160Z,34.54
2022-08-03T14:50:55.271Z,34.00
2022-08-03T14:53:29.017Z,32.98
2022-08-03T14:56:06.518Z,34.65
2022-08-03T14:58:42.711Z,34.90
2022-08-03T15:02:04.849Z,35.04
2022-08-03T15:04:11.110Z,34.93
2022-08-03T15:06:43.873Z,36.37
2022-08-03T15:09:23.824Z,36.32
2022-08-03T15:11:59.280Z,36.53
2022-08-03T15:14:34.829Z,37.37
2022-08-03T15:17:09.339Z,37.67
2022-08-03T15:20:02.751Z,36.37
2022-08-03T15:22:36.079Z,34.75
2022-08-03T15:26:27.917Z,33.14
2022-08-03T15:28:02.780Z,32.99
2022-08-03T15:30:39.410Z,32.52
2022-08-03T15:33:12.002Z,33.25
2022-08-03T15:35:46.354Z,32.61
2022-08-03T15:38:19.999Z,32.08
2022-08-03T15:40:54.477Z,32.81
2022-08-03T15:43:27.308Z,33.08
2022-08-03T15:46:28.284Z,32.55
2022-08-03T15:48:52.643Z,32.16
2022-08-03T15:51:25.392Z,32.12
2022-08-03T15:53:58.056Z,34.26
2022-08-03T15:56:31.103Z,34.75
2022-08-03T15:59:13.223Z,34.20
2022-08-03T16:01:51.190Z,33.39
2022-08-03T16:04:24.009Z,32.74
2022-08-03T16:06:56.655Z,32.19
2022-08-03T16:09:43.180Z,31.49
2022-08-03T16:12:16.903Z,31.40
2022-08-03T16:14:53.592Z,32.42
2022-08-03T16:17:26.490Z,32.59
2022-08-03T16:19:59.067Z,32.01
2022-08-03T16:22:32.485Z,33.01
2022-08-03T16:25:16.471Z,34.85
2022-08-03T16:28:00.451Z,36.05
2022-08-03T16:30:44.281Z,36.76
2022-08-03T16:33:20.014Z,36.92
2022-08-03T16:35:52.690Z,36.57
2022-08-03T16:38:25.560Z,36.65
2022-08-03T16:40:58.508Z,36.82
2022-08-03T16:43:32.515Z,36.68
2022-08-03T16:46:05.225Z,36.99
2022-08-03T16:48:38.486Z,36.29
2022-08-03T16:51:11.371Z,35.91
2022-08-03T16:54:05.199Z,35.76
2022-08-03T16:56:37.162Z,35.97
2022-08-03T16:59:09.930Z,35.47
2022-08-03T17:01:47.467Z,34.91
2022-08-03T17:04:20.260Z,34.53
2022-08-03T17:06:53.732Z,34.54
2022-08-03T17:09:29.867Z,35.28
2022-08-03T17:12:19.956Z,34.87
2022-08-03T17:14:55.283Z,34.18
2022-08-03T17:17:47.735Z,33.62
2022-08-03T17:20:30.123Z,32.93
2022-08-03T17:23:34.276Z,32.24
2022-08-03T17:26:21.112Z,31.76
2022-08-03T17:28:57.904Z,31.06
2022-08-03T17:32:09.776Z,30.79
2022-08-03T17:34:59.148Z,30.61
2022-08-03T17:37:57.405Z,30.21
2022-08-03T17:40:25.586Z,29.93
2022-08-03T17:43:00.419Z,30.46
2022-08-03T17:45:52.018Z,30.04
2022-08-03T17:48:26.057Z,29.55
2022-08-03T17:51:07.376Z,29.52
2022-08-03T17:54:29.831Z,29.83
2022-08-03T17:57:27.286Z,29.46
2022-08-03T18:00:27.737Z,29.19
2022-08-03T18:03:31.691Z,28.98
2022-08-03T18:06:33.720Z,28.89
2022-08-03T18:10:05.926Z,28.56
2022-08-03T18:12:10.494Z,28.65
2022-08-03T18:14:57.144Z,28.12
2022-08-03T18:17:37.999Z,28.12
2022-08-03T18:20:41.273Z,27.85
2022-08-03T18:23:25.538Z,28.24
2022-08-03T18:26:11.923Z,27.56
2022-08-03T18:28:48.398Z,27.73
2022-08-03T18:32:00.206Z,27.28
2022-08-03T18:34:33.241Z,27.68
2022-08-03T18:37:25.255Z,26.81
2022-08-03T18:40:11.502Z,26.97
2022-08-03T18:42:51.047Z,26.99
2022-08-03T18:45:55.959Z,27.39
2022-08-03T18:48:52.824Z,27.05
2022-08-03T18:51:28.764Z,26.79
2022-08-03T18:54:45.977Z,27.12
2022-08-03T18:57:54.945Z,26.35
2022-08-03T19:00:54.429Z,26.12
2022-08-03T19:03:43.402Z,26.24
2022-08-03T19:06:23.623Z,26.10
2022-08-03T19:09:09.446Z,25.99
2022-08-03T19:12:26.180Z,25.46
2022-08-03T19:14:53.501Z,25.68
2022-08-03T19:17:29.366Z,25.60
2022-08-03T19:20:08.960Z,25.14
2022-08-03T19:22:47.942Z,25.16
2022-08-03T19:25:35.212Z,25.22
2022-08-03T19:28:09.383Z,25.22
2022-08-03T19:30:46.525Z,24.99
2022-08-03T19:33:56.090Z,25.18
2022-08-03T19:36:31.280Z,24.98
2022-08-03T19:39:09.144Z,24.94
2022-08-03T19:41:51.439Z,24.72
2022-08-03T19:44:30.549Z,24.70
2022-08-03T19:47:21.603Z,24.44
2022-08-03T19:50:05.642Z,24.21
2022-08-03T19:52:42.344Z,24.29
2022-08-03T19:55:17.822Z,23.83
2022-08-03T19:57:57.114Z,23.75
2022-08-03T20:00:34.004Z,23.97
2022-08-03T20:03:22.000Z,24.05
2022-08-03T20:05:58.819Z,24.00
2022-08-03T20:08:32.573Z,23.84
2022-08-03T20:11:05.602Z,23.83
2022-08-03T20:13:40.167Z,23.69
2022-08-03T20:16:16.212Z,23.65
2022-08-03T20:18:49.144Z,23.83
2022-08-03T20:21:27.100Z,23.61
2022-08-03T20:24:23.876Z,23.47
2022-08-03T20:27:01.388Z,23.83
2022-08-03T20:30:06.115Z,23.91
2022-08-03T20:32:35.395Z,23.56
2022-08-03T20:35:11.793Z,23.88
2022-08-03T20:37:44.526Z,23.39
2022-08-03T20:40:17.815Z,23.93
2022-08-03T20:42:51.932Z,23.55
2022-08-03T20:46:00.142Z,23.47
2022-08-03T20:48:25.460Z,23.30
2022-08-03T20:51:19.560Z,23.27
2022-08-03T20:53:59.840Z,22.76
2022-08-03T20:56:35.762Z,23.27
2022-08-03T20:59:15.206Z,23.01
2022-08-03T21:01:48.396Z,22.49
2022-08-03T21:04:22.554Z,22.43
2022-08-03T21:07:16.682Z,22.50
2022-08-03T21:09:57.125Z,22.68
2022-08-03T21:12:44.601Z,22.68
2022-08-03T21:16:06.633Z,22.40
2022-08-03T21:18:17.659Z,22.24
2022-08-03T21:20:52.898Z,22.20
2022-08-03T21:23:47.552Z,22.07
2022-08-03T21:26:25.403Z,22.26
2022-08-03T21:29:03.216Z,21.96
2022-08-03T21:31:39.879Z,21.79
2022-08-03T21:34:12.548Z,22.08
2022-08-03T21:36:45.193Z,21.93
2022-08-03T21:39:17.916Z,21.59
2022-08-03T21:41:50.487Z,21.52
2022-08-03T21:44:25.124Z,21.48
2022-08-03T21:47:09.843Z,21.40
2022-08-03T21:50:05.893Z,21.45
2022-08-03T21:52:44.046Z,21.66
2022-08-03T21:55:20.917Z,21.50
2022-08-03T21:58:02.801Z,21.63
2022-08-03T22:00:35.713Z,21.37
2022-08-03T22:03:13.841Z,21.33
2022-08-03T22:05:51.563Z,21.02
2022-08-03T22:08:35.230Z,21.09
2022-08-03T22:11:09.741Z,20.95
2022-08-03T22:13:43.821Z,21.32
2022-08-03T22:16:17.401Z,21.30
2022-08-03T22:18:50.164Z,21.30
2022-08-03T22:21:35.868Z,21.24
2022-08-03T22:24:09.549Z,21.24
2022-08-03T22:27:04.344Z,20.91
2022-08-03T22:29:41.957Z,21.02
2022-08-03T22:32:14.613Z,20.57
2022-08-03T22:34:49.281Z,20.69
2022-08-03T22:37:31.018Z,20.97
2022-08-03T22:40:14.315Z,20.65
2022-08-03T22:42:50.613Z,20.87
2022-08-03T22:46:07.543Z,20.87
2022-08-03T22:48:27.784Z,20.57
2022-08-03T22:51:01.948Z,20.61
2022-08-03T22:53:35.849Z,20.32
2022-08-03T22:56:09.014Z,20.47
2022-08-03T22:58:42.159Z,20.70
2022-08-03T23:01:23.078Z,20.42
2022-08-03T23:04:02.928Z,20.49
2022-08-03T23:06:42.552Z,20.85
2022-08-03T23:09:18.454Z,20.37
2022-08-03T23:11:56.692Z,20.54
2022-08-03T23:14:38.515Z,20.78
2022-08-03T23:17:14.333Z,20.38
2022-08-03T23:19:47.417Z,20.34
2022-08-03T23:22:30.447Z,20.46
2022-08-03T23:25:05.009Z,20.46
2022-08-03T23:27:43.553Z,20.68
2022-08-03T23:30:16.796Z,20.70
2022-08-03T23:32:54.572Z,20.81
2022-08-03T23:36:28.725Z,20.86
2022-08-03T23:38:39.988Z,20.39
2022-08-03T23:41:14.130Z,20.82
2022-08-03T23:43:52.127Z,20.32
2022-08-03T23:46:30.424Z,20.30
2022-08-03T23:49:11.323Z,20.22
2022-08-03T23:52:10.317Z,20.49
2022-08-03T23:54:51.974Z,20.59
2022-08-03T23:58:05.141Z,20.55
